Time;durP1;ratioP1;P1;durP2;ratioP2;P2;SDS_P1;SDS_P2;PMS_P1;PMS_P2;Temp;Humidity;BMP_temperature;BMP_pressure;BME280_temperature;BME280_humidity;BME280_pressure;Samples;Min_cycle;Max_cycle;Signal;HPM_P1;HPM_P2
2023/12/21 00:02:05;;;;;;;23.45;10.38;;;;;;;-2.56;89.26;94156.91;5089043;28;20032;-75
2023/12/21 00:04:32;;;;;;;16.33;10.20;;;;;;;-2.33;91.40;94165.25;5091573;28;20505;-76
2023/12/21 00:06:57;;;;;;;14.98;9.82;;;;;;;-2.34;91.39;94145.78;5073579;28;20020;-75
2023/12/21 00:09:23;;;;;;;16.65;9.70;;;;;;;-2.04;92.11;94171.63;5090529;28;20074;-75
2023/12/21 00:11:48;;;;;;;21.33;12.25;;;;;;;-1.80;91.11;94169.72;5079579;28;20456;-76
2023/12/21 00:14:14;;;;;;;27.55;15.23;;;;;;;-1.81;90.02;94168.06;5071589;28;20040;-75
2023/12/21 00:16:39;;;;;;;32.28;17.15;;;;;;;-2.13;90.39;94170.31;5071185;28;20021;-76
2023/12/21 00:19:04;;;;;;;24.85;14.85;;;;;;;-1.98;89.84;94171.34;5053293;28;20031;-76
2023/12/21 00:21:30;;;;;;;37.88;18.77;;;;;;;-1.99;89.82;94179.06;5084882;28;20028;-76
2023/12/21 00:23:55;;;;;;;43.35;24.15;;;;;;;-1.80;87.82;94178.16;5124213;27;20036;-75
2023/12/21 00:26:21;;;;;;;42.60;24.23;;;;;;;-2.09;88.69;94171.00;5073201;28;20062;-76
2023/12/21 00:28:47;;;;;;;46.53;26.52;;;;;;;-1.98;88.56;94178.97;5071684;28;20508;-76
2023/12/21 00:31:12;;;;;;;161.93;53.35;;;;;;;-2.17;88.42;94153.53;5073008;28;20051;-76
2023/12/21 00:33:37;;;;;;;52.42;27.70;;;;;;;-1.96;87.54;94167.00;5123894;27;20028;-76
2023/12/21 00:36:03;;;;;;;45.15;23.00;;;;;;;-2.23;88.19;94197.03;5089837;28;20414;-76
2023/12/21 00:38:29;;;;;;;72.63;38.92;;;;;;;-2.15;87.44;94189.91;5088292;28;20113;-76
2023/12/21 00:40:56;;;;;;;123.65;57.80;;;;;;;-2.56;88.30;94184.88;5073090;28;20481;-75
2023/12/21 00:43:21;;;;;;;81.57;45.42;;;;;;;-2.33;88.02;94201.72;5107726;28;20074;-76
2023/12/21 00:45:47;;;;;;;94.18;44.38;;;;;;;-2.18;86.80;94199.41;5093154;28;20227;-76
2023/12/21 00:48:14;;;;;;;86.25;45.47;;;;;;;-2.26;86.68;94205.66;5096523;28;20040;-76
2023/12/21 00:50:40;;;;;;;84.43;46.47;;;;;;;-2.54;86.67;94202.59;5090935;28;20042;-76
2023/12/21 00:53:05;;;;;;;88.85;45.78;;;;;;;-2.71;87.31;94204.13;5056151;28;20482;-76
2023/12/21 00:55:31;;;;;;;87.22;45.35;;;;;;;-2.58;86.72;94209.53;5091163;28;20509;-76
2023/12/21 00:57:57;;;;;;;77.82;42.83;;;;;;;-2.54;85.23;94203.41;5072230;28;20041;-75
2023/12/21 01:00:24;;;;;;;78.53;43.70;;;;;;;-2.76;85.10;94225.53;5069675;28;20110;-76
2023/12/21 01:02:49;;;;;;;80.70;43.63;;;;;;;-2.86;85.52;94202.22;5070630;28;20028;-76
2023/12/21 01:05:14;;;;;;;73.10;41.88;;;;;;;-2.64;85.14;94219.16;5054218;28;20037;-76
2023/12/21 01:07:41;;;;;;;67.65;40.20;;;;;;;-3.12;85.73;94200.72;5089373;28;20028;-76
2023/12/21 01:10:07;;;;;;;80.88;41.83;;;;;;;-3.12;85.80;94210.03;5089593;28;20489;-75
2023/12/21 01:12:33;;;;;;;76.72;42.13;;;;;;;-2.74;85.10;94221.22;5089543;28;20161;-75
2023/12/21 01:15:00;;;;;;;70.90;41.30;;;;;;;-2.79;84.38;94210.41;5055319;28;20085;-76
2023/12/21 01:17:25;;;;;;;70.70;41.08;;;;;;;-2.69;83.56;94214.25;5090657;28;20039;-75
2023/12/21 01:19:50;;;;;;;70.78;40.22;;;;;;;-2.85;83.45;94203.88;5089746;28;20028;-75
2023/12/21 01:22:16;;;;;;;65.25;39.20;;;;;;;-2.98;83.79;94195.06;5089432;28;20092;-76
2023/12/21 01:24:41;;;;;;;68.43;39.60;;;;;;;-2.81;83.86;94209.66;5076111;28;20240;-75
2023/12/21 01:27:07;;;;;;;74.20;40.20;;;;;;;-3.15;84.09;94194.06;5070258;28;20494;-76
2023/12/21 01:29:32;;;;;;;65.20;38.33;;;;;;;-2.86;83.97;94207.31;5069525;28;20036;-76
2023/12/21 01:31:58;;;;;;;66.35;37.58;;;;;;;-2.95;83.51;94195.78;5068999;28;20036;-76
2023/12/21 01:34:23;;;;;;;69.60;41.33;;;;;;;-3.03;83.94;94204.63;5070713;28;20028;-76
2023/12/21 01:36:49;;;;;;;65.93;37.80;;;;;;;-3.07;84.01;94178.47;5090582;28;20028;-75
2023/12/21 01:39:14;;;;;;;65.30;37.20;;;;;;;-2.81;82.68;94204.59;5090935;28;20032;-75
2023/12/21 01:41:40;;;;;;;56.08;35.40;;;;;;;-2.76;82.56;94208.59;5088239;28;20063;-75
2023/12/21 01:44:05;;;;;;;63.55;37.45;;;;;;;-2.75;82.23;94200.06;5072324;28;20035;-75
2023/12/21 01:46:31;;;;;;;58.72;35.85;;;;;;;-2.72;82.31;94205.03;5072436;28;20039;-75
2023/12/21 01:48:57;;;;;;;64.68;37.70;;;;;;;-2.77;82.27;94195.94;5089359;28;20028;-76
2023/12/21 01:51:22;;;;;;;60.72;37.42;;;;;;;-2.80;82.68;94209.59;5073985;28;20493;-76
2023/12/21 01:53:48;;;;;;;64.07;35.65;;;;;;;-2.72;82.34;94191.50;5092716;28;20032;-76
2023/12/21 01:56:13;;;;;;;53.42;33.40;;;;;;;-2.88;83.07;94178.56;5075755;28;20033;-75
2023/12/21 01:58:39;;;;;;;53.83;31.52;;;;;;;-2.96;84.94;94176.34;5109833;28;20024;-75
2023/12/21 02:01:04;;;;;;;49.25;28.52;;;;;;;-2.76;83.90;94195.88;5058154;28;20035;-76
2023/12/21 02:03:30;;;;;;;52.78;32.25;;;;;;;-2.98;84.06;94172.19;5075934;28;20028;-75
2023/12/21 02:05:55;;;;;;;50.95;32.80;;;;;;;-3.06;85.00;94189.50;5092858;28;20417;-76
2023/12/21 02:08:20;;;;;;;47.13;28.58;;;;;;;-2.79;84.31;94179.91;5092491;28;20047;-75
2023/12/21 02:10:46;;;;;;;44.22;26.52;;;;;;;-2.86;84.32;94181.88;5091370;28;20101;-75
2023/12/21 02:13:12;;;;;;;44.80;27.50;;;;;;;-2.99;85.04;94180.72;5091906;28;20043;-75
2023/12/21 02:15:37;;;;;;;43.53;25.30;;;;;;;-2.76;84.79;94184.84;5091311;28;20118;-76
2023/12/21 02:18:03;;;;;;;35.72;21.00;;;;;;;-2.88;84.94;94182.84;5087590;28;20024;-76
2023/12/21 02:20:28;;;;;;;36.72;20.75;;;;;;;-2.86;85.67;94192.06;5055472;28;20028;-76
2023/12/21 02:22:54;;;;;;;34.67;20.63;;;;;;;-2.71;85.92;94193.13;5055412;28;20050;-76
2023/12/21 02:25:19;;;;;;;28.60;18.33;;;;;;;-2.54;86.08;94192.44;5055418;28;20489;-75
2023/12/21 02:27:49;;;;;;;32.65;19.63;;;;;;;-2.68;85.99;94199.81;5081865;28;20035;-75
2023/12/21 02:30:14;;;;;;;32.83;20.75;;;;;;;-2.57;84.65;94173.03;5092297;28;20505;-76
2023/12/21 02:32:40;;;;;;;41.50;21.52;;;;;;;-2.67;85.38;94202.31;5108899;28;20093;-76
2023/12/21 02:35:05;;;;;;;29.63;19.08;;;;;;;-2.62;85.14;94186.84;5075385;28;20467;-76
2023/12/21 02:37:31;;;;;;;32.75;19.90;;;;;;;-2.48;84.89;94192.16;5076353;28;20024;-75
2023/12/21 02:39:56;;;;;;;32.90;19.63;;;;;;;-2.64;85.41;94206.44;5072914;28;20035;-76
2023/12/21 02:42:22;;;;;;;35.15;21.52;;;;;;;-2.54;85.67;94207.69;5090883;28;20027;-75
2023/12/21 02:44:47;;;;;;;36.90;21.60;;;;;;;-2.62;86.24;94204.63;5109998;28;20023;-75
2023/12/21 02:47:12;;;;;;;34.03;23.20;;;;;;;-2.56;86.61;94202.69;5088118;28;20037;-76
2023/12/21 02:49:38;;;;;;;36.83;24.20;;;;;;;-2.53;86.72;94201.72;5071971;28;20029;-76
2023/12/21 02:52:04;;;;;;;33.42;22.40;;;;;;;-2.56;86.39;94201.88;5072826;28;20028;-76
2023/12/21 02:54:29;;;;;;;37.90;21.63;;;;;;;-2.22;85.76;94208.06;5078316;28;20137;-76
2023/12/21 02:56:55;;;;;;;34.28;22.48;;;;;;;-2.35;85.72;94206.03;5074795;28;20121;-76
2023/12/21 02:59:21;;;;;;;39.08;22.77;;;;;;;-2.43;86.50;94191.97;5093270;28;20024;-76
2023/12/21 03:01:46;;;;;;;36.33;20.58;;;;;;;-2.17;86.98;94195.94;5092550;28;20040;-77
2023/12/21 03:04:12;;;;;;;38.33;22.95;;;;;;;-2.18;86.81;94196.84;5091595;28;20066;-76
2023/12/21 03:06:38;;;;;;;37.38;22.67;;;;;;;-2.02;86.35;94188.47;5091537;28;20036;-76
2023/12/21 03:09:03;;;;;;;38.45;22.65;;;;;;;-2.18;86.32;94168.84;5074513;28;20124;-75
2023/12/21 03:11:29;;;;;;;40.40;23.27;;;;;;;-2.28;86.79;94187.06;5091466;28;20024;-75
2023/12/21 03:13:54;;;;;;;37.58;22.48;;;;;;;-2.06;87.75;94184.44;5057838;28;20406;-76
2023/12/21 03:16:20;;;;;;;41.25;24.38;;;;;;;-2.07;86.44;94195.47;5054404;28;20037;-76
2023/12/21 03:18:46;;;;;;;37.72;23.88;;;;;;;-2.11;86.84;94195.69;5071175;28;20063;-75
2023/12/21 03:21:11;;;;;;;37.30;23.80;;;;;;;-1.87;86.98;94199.69;5071722;28;20041;-76
2023/12/21 03:23:39;;;;;;;39.35;24.40;;;;;;;-2.04;87.05;94186.88;5092619;28;20111;-76
2023/12/21 03:26:04;;;;;;;39.88;23.65;;;;;;;-1.91;87.54;94199.91;5108287;27;20024;-76
2023/12/21 03:28:30;;;;;;;39.13;23.98;;;;;;;-1.99;88.67;94190.06;5091071;28;20028;-76
2023/12/21 03:30:55;;;;;;;40.50;23.85;;;;;;;-2.00;88.93;94179.97;5089403;28;20421;-76
2023/12/21 03:33:21;;;;;;;41.58;25.90;;;;;;;-1.87;89.18;94202.25;5074053;28;20035;-76
2023/12/21 03:35:46;;;;;;;40.08;24.65;;;;;;;-1.87;90.21;94189.50;5091152;28;20100;-76
2023/12/21 03:38:12;;;;;;;39.33;25.08;;;;;;;-1.72;90.37;94187.19;5090858;28;20024;-76
2023/12/21 03:40:37;;;;;;;39.20;24.63;;;;;;;-1.58;88.24;94197.59;5061285;28;20521;-76
2023/12/21 03:43:03;;;;;;;41.78;25.25;;;;;;;-1.66;88.62;94212.38;5088362;28;20036;-76
2023/12/21 03:45:29;;;;;;;36.70;24.25;;;;;;;-1.66;88.36;94202.19;5110938;28;20106;-76
2023/12/21 03:47:54;;;;;;;31.38;21.05;;;;;;;-1.69;88.99;94192.97;5094135;28;20088;-76
2023/12/21 03:50:20;;;;;;;35.17;21.92;;;;;;;-1.54;89.09;94200.81;5074705;28;20032;-76
2023/12/21 03:52:45;;;;;;;32.72;20.60;;;;;;;-1.54;89.97;94185.53;5073630;28;20496;-75
2023/12/21 03:55:10;;;;;;;32.90;20.38;;;;;;;-1.29;89.89;94197.97;5090679;28;20028;-76
2023/12/21 03:57:36;;;;;;;34.00;19.40;;;;;;;-1.12;90.54;94200.53;5089012;28;20490;-76
2023/12/21 04:00:02;;;;;;;33.15;20.55;;;;;;;-1.08;89.70;94204.59;5107320;28;20064;-76
2023/12/21 04:02:27;;;;;;;35.95;20.63;;;;;;;-1.23;88.81;94212.97;5090450;28;20102;-75
2023/12/21 04:04:53;;;;;;;39.00;24.42;;;;;;;-1.19;88.24;94217.03;5090671;28;20036;-75
2023/12/21 04:07:18;;;;;;;52.10;33.83;;;;;;;-1.43;88.12;94208.78;5081488;28;20040;-75
2023/12/21 04:09:44;;;;;;;44.83;29.63;;;;;;;-1.29;88.47;94213.25;5070147;28;20033;-75
2023/12/21 04:12:09;;;;;;;32.67;19.67;;;;;;;-1.31;88.88;94221.00;5053268;28;20036;-75
2023/12/21 04:14:34;;;;;;;26.63;17.40;;;;;;;-1.12;88.43;94218.38;5079350;28;20024;-75
2023/12/21 04:17:00;;;;;;;29.00;15.85;;;;;;;-1.23;88.19;94215.50;5121456;27;20036;-75
2023/12/21 04:19:25;;;;;;;29.05;16.90;;;;;;;-1.39;88.41;94208.59;5090350;28;20413;-75
2023/12/21 04:21:51;;;;;;;37.30;23.30;;;;;;;-1.51;87.92;94200.66;5091389;28;20028;-75
2023/12/21 04:24:16;;;;;;;52.88;35.30;;;;;;;-1.32;88.44;94215.94;5107177;28;20039;-76
2023/12/21 04:26:42;;;;;;;51.15;33.92;;;;;;;-1.50;88.40;94220.16;5089172;28;20092;-75
2023/12/21 04:29:07;;;;;;;38.53;25.52;;;;;;;-1.26;88.44;94224.13;5106861;28;20475;-75
2023/12/21 04:31:33;;;;;;;37.97;26.10;;;;;;;-1.39;88.23;94220.50;5106858;28;20097;-75
2023/12/21 04:33:58;;;;;;;38.80;23.15;;;;;;;-1.52;88.48;94219.41;5088903;28;20042;-75
2023/12/21 04:36:24;;;;;;;34.45;22.13;;;;;;;-1.55;88.48;94219.56;5090175;28;20024;-75
2023/12/21 04:38:49;;;;;;;25.77;17.48;;;;;;;-1.41;87.87;94230.75;5091356;28;20093;-75
2023/12/21 04:41:14;;;;;;;22.98;16.00;;;;;;;-1.46;89.09;94217.41;5073135;28;20044;-75
2023/12/21 04:43:40;;;;;;;20.63;13.55;;;;;;;-1.20;89.74;94220.47;5100128;28;20430;-75
2023/12/21 04:46:05;;;;;;;20.35;12.20;;;;;;;-1.10;90.88;94216.59;5089732;28;20032;-75
2023/12/21 04:48:31;;;;;;;19.67;12.60;;;;;;;-0.90;90.71;94223.28;5123843;27;20390;-75
2023/12/21 04:50:56;;;;;;;19.98;12.50;;;;;;;-0.98;90.47;94230.47;5123754;27;20539;-75
2023/12/21 04:53:22;;;;;;;20.95;12.55;;;;;;;-0.92;90.96;94220.84;5058430;28;20036;-75
2023/12/21 04:55:48;;;;;;;18.85;11.93;;;;;;;-0.77;89.99;94219.28;5069490;28;20027;-75
2023/12/21 04:58:14;;;;;;;23.42;13.77;;;;;;;-0.68;89.15;94234.13;5052879;28;20097;-75
2023/12/21 05:00:40;;;;;;;22.50;14.63;;;;;;;-0.60;89.13;94231.22;5053555;28;20032;-75
2023/12/21 05:03:05;;;;;;;31.85;19.33;;;;;;;-0.72;89.08;94226.72;5067614;28;20433;-75
2023/12/21 05:05:31;;;;;;;26.83;17.17;;;;;;;-0.69;88.31;94216.34;5086615;28;20024;-75
2023/12/21 05:07:56;;;;;;;19.25;13.45;;;;;;;-0.78;89.35;94217.63;5068703;28;20028;-75
2023/12/21 05:10:22;;;;;;;18.05;12.40;;;;;;;-0.73;88.74;94232.69;5066314;28;20028;-75
2023/12/21 05:12:49;;;;;;;17.42;11.60;;;;;;;-0.76;88.84;94220.09;5083488;28;20649;-75
2023/12/21 05:15:14;;;;;;;19.55;12.32;;;;;;;-0.80;89.55;94221.97;5067190;28;20032;-75
2023/12/21 05:17:40;;;;;;;17.65;11.00;;;;;;;-0.72;89.78;94226.72;5083921;28;20059;-75
2023/12/21 05:20:07;;;;;;;21.85;12.57;;;;;;;-0.62;89.58;94227.91;5070215;28;20085;-75
2023/12/21 05:22:32;;;;;;;39.95;25.65;;;;;;;-0.60;88.69;94231.22;5069087;28;20031;-75
2023/12/21 05:24:58;;;;;;;34.33;21.48;;;;;;;-0.77;89.65;94234.56;5086329;28;20024;-75
2023/12/21 05:27:23;;;;;;;28.17;17.75;;;;;;;-0.70;89.40;94243.59;5072551;28;20024;-75
2023/12/21 05:29:49;;;;;;;18.85;12.25;;;;;;;-0.53;88.92;94237.69;5091643;28;20035;-75
2023/12/21 05:32:14;;;;;;;19.13;11.73;;;;;;;-0.63;88.64;94238.19;5089521;28;20035;-75
2023/12/21 05:34:39;;;;;;;21.65;14.05;;;;;;;-0.40;88.85;94240.44;5088496;28;20394;-75
2023/12/21 05:37:05;;;;;;;23.75;14.25;;;;;;;-0.44;88.40;94225.38;5093817;28;20501;-75
2023/12/21 05:39:30;;;;;;;22.45;13.90;;;;;;;-0.38;88.42;94232.72;5091095;28;20039;-76
2023/12/21 05:41:57;;;;;;;36.50;22.83;;;;;;;-0.21;88.85;94230.16;5056752;28;20036;-75
2023/12/21 05:44:22;;;;;;;26.42;16.50;;;;;;;-0.23;87.99;94224.28;5088399;28;20035;-75
2023/12/21 05:46:48;;;;;;;23.08;14.20;;;;;;;-0.35;88.65;94233.38;5090396;28;20024;-75
2023/12/21 05:49:13;;;;;;;21.42;13.25;;;;;;;-0.31;87.84;94241.69;5089010;28;20043;-75
2023/12/21 05:51:39;;;;;;;20.35;12.93;;;;;;;-0.31;87.31;94214.44;5088396;28;20028;-75
2023/12/21 05:54:04;;;;;;;21.38;14.00;;;;;;;-0.28;87.66;94228.78;5070556;28;20054;-75
2023/12/21 05:56:30;;;;;;;20.63;14.25;;;;;;;-0.18;87.20;94229.16;5093851;28;20067;-75
2023/12/21 05:58:55;;;;;;;19.65;13.73;;;;;;;-0.25;87.35;94210.78;5089213;28;20028;-75
2023/12/21 06:01:21;;;;;;;16.95;11.07;;;;;;;-0.23;86.58;94224.28;5089841;28;20093;-75
2023/12/21 06:03:46;;;;;;;17.80;11.88;;;;;;;-0.26;87.25;94227.00;5090008;28;20417;-75
2023/12/21 06:06:13;;;;;;;17.38;10.60;;;;;;;-0.20;87.98;94234.34;5107211;27;20043;-75
2023/12/21 06:08:39;;;;;;;16.42;10.25;;;;;;;-0.28;88.06;94231.34;5089183;28;20028;-75
2023/12/21 06:11:04;;;;;;;15.45;10.05;;;;;;;-0.24;87.27;94227.75;5072965;28;20554;-75
2023/12/21 06:13:30;;;;;;;17.92;10.88;;;;;;;-0.05;86.87;94233.56;5089712;28;20055;-75
2023/12/21 06:15:55;;;;;;;13.93;9.48;;;;;;;-0.13;86.30;94229.75;5056042;28;20453;-75
2023/12/21 06:18:20;;;;;;;17.50;10.15;;;;;;;-0.09;86.28;94218.47;5088234;28;20073;-75
2023/12/21 06:20:46;;;;;;;17.70;10.55;;;;;;;0.02;86.20;94223.03;5088877;28;20409;-75
2023/12/21 06:23:11;;;;;;;31.52;14.27;;;;;;;0.19;84.50;94225.56;5093745;28;20417;-75
2023/12/21 06:25:37;;;;;;;13.98;9.45;;;;;;;0.02;84.25;94202.63;5088663;28;20040;-75
2023/12/21 06:28:02;;;;;;;14.35;9.70;;;;;;;-0.08;84.36;94222.69;5053342;28;20035;-74
2023/12/21 06:30:28;;;;;;;17.70;11.48;;;;;;;-0.10;84.34;94214.28;5097294;28;20467;-75
2023/12/21 06:32:53;;;;;;;14.85;9.45;;;;;;;-0.26;84.94;94209.94;5091867;28;20031;-75
2023/12/21 06:35:19;;;;;;;14.95;9.52;;;;;;;-0.24;85.54;94223.47;5090725;28;20418;-75
2023/12/21 06:37:45;;;;;;;15.20;10.05;;;;;;;-0.22;85.96;94236.16;5074718;28;20035;-75
2023/12/21 06:40:10;;;;;;;14.63;9.65;;;;;;;-0.06;85.74;94233.63;5070119;28;21030;-75
2023/12/21 06:42:36;;;;;;;24.88;13.85;;;;;;;-0.03;84.33;94239.44;5087041;28;20125;-77
2023/12/21 06:45:02;;;;;;;74.18;34.45;;;;;;;-0.25;84.43;94226.09;5072021;28;20060;-74
2023/12/21 06:47:27;;;;;;;88.18;41.85;;;;;;;-0.17;84.66;94229.06;5088657;28;20126;-73
2023/12/21 06:49:52;;;;;;;32.33;19.98;;;;;;;-0.16;84.12;94229.91;5089394;28;20032;-73
2023/12/21 06:52:18;;;;;;;25.35;14.70;;;;;;;-0.38;84.91;94233.53;5089770;28;20306;-73
2023/12/21 06:54:43;;;;;;;18.52;11.38;;;;;;;-0.24;85.17;94240.50;5090085;28;20043;-74
2023/12/21 06:57:10;;;;;;;18.58;12.05;;;;;;;-0.25;85.66;94231.22;5072272;28;20063;-77
2023/12/21 06:59:35;;;;;;;18.90;11.75;;;;;;;-0.06;85.89;94228.53;5073129;28;20027;-74
2023/12/21 07:02:01;;;;;;;66.10;24.83;;;;;;;-0.32;85.55;94219.66;5107600;27;20031;-74
2023/12/21 07:04:26;;;;;;;24.77;14.75;;;;;;;-0.32;85.98;94232.41;5088688;28;20028;-73
2023/12/21 07:06:52;;;;;;;21.98;12.82;;;;;;;-0.32;86.64;94228.13;5077921;28;20098;-73
2023/12/21 07:09:17;;;;;;;18.67;12.25;;;;;;;-0.28;86.80;94232.19;5092392;28;20032;-69
2023/12/21 07:11:43;;;;;;;18.88;11.90;;;;;;;-0.19;86.82;94230.06;5073677;28;20032;-74
2023/12/21 07:14:08;;;;;;;16.23;12.02;;;;;;;-0.20;86.46;94236.06;5107815;28;20038;-74
2023/12/21 07:16:34;;;;;;;18.35;12.13;;;;;;;-0.23;86.90;94239.59;5122774;27;20442;-74
2023/12/21 07:19:01;;;;;;;15.88;11.60;;;;;;;-0.04;86.00;94237.78;5113232;27;20028;-74
2023/12/21 07:21:28;;;;;;;16.55;10.30;;;;;;;0.01;84.90;94231.63;5109823;28;20054;-74
2023/12/21 07:23:53;;;;;;;18.92;12.55;;;;;;;-0.16;86.01;94243.50;5090220;28;20036;-72
2023/12/21 07:26:19;;;;;;;17.75;12.30;;;;;;;-0.20;86.08;94231.78;5092515;28;20035;-72
2023/12/21 07:28:44;;;;;;;14.35;9.48;;;;;;;0.06;84.40;94239.88;5092344;28;20036;-73
2023/12/21 07:31:11;;;;;;;19.10;13.27;;;;;;;0.03;84.58;94243.41;5110789;28;20031;-72
2023/12/21 07:33:37;;;;;;;24.10;17.08;;;;;;;-0.03;84.59;94248.81;5110735;28;20401;-73
2023/12/21 07:36:07;;;;;;;19.15;13.18;;;;;;;0.08;85.48;94243.97;5109179;28;20113;-72
2023/12/21 07:38:32;;;;;;;15.35;9.63;;;;;;;0.04;84.48;94237.38;5109310;28;20023;-72
2023/12/21 07:40:57;;;;;;;16.45;11.48;;;;;;;0.02;85.85;94249.41;5094181;28;20546;-72
2023/12/21 07:43:23;;;;;;;13.68;9.40;;;;;;;0.12;85.22;94249.78;5094264;28;20459;-73
2023/12/21 07:45:48;;;;;;;14.90;9.25;;;;;;;0.18;84.55;94237.50;5111346;28;20035;-75
2023/12/21 07:48:14;;;;;;;14.75;8.95;;;;;;;0.29;84.99;94242.06;5093164;28;20031;-74
2023/12/21 07:50:39;;;;;;;13.98;8.15;;;;;;;0.32;84.27;94243.63;5112358;28;20043;-74
2023/12/21 07:53:05;;;;;;;18.30;12.73;;;;;;;0.27;84.44;94248.97;5112473;28;20477;-73
2023/12/21 07:55:31;;;;;;;18.70;12.52;;;;;;;0.36;84.44;94258.75;5110986;28;20032;-73
2023/12/21 07:57:56;;;;;;;18.48;11.32;;;;;;;0.51;84.06;94258.84;5093777;28;20435;-73
2023/12/21 08:00:21;;;;;;;27.25;18.35;;;;;;;0.12;84.84;94237.00;5110951;28;20043;-73
2023/12/21 08:02:48;;;;;;;22.23;13.15;;;;;;;0.24;85.47;94249.13;5110818;28;20028;-73
2023/12/21 08:05:13;;;;;;;15.00;10.25;;;;;;;0.41;85.03;94256.75;5112016;28;20462;-73
2023/12/21 08:07:40;;;;;;;13.63;9.57;;;;;;;0.37;85.33;94245.03;5110475;28;20424;-73
2023/12/21 08:10:07;;;;;;;16.85;10.38;;;;;;;0.59;84.01;94251.59;5093686;28;20037;-74
2023/12/21 08:12:33;;;;;;;17.00;12.10;;;;;;;0.56;85.22;94252.59;5076899;28;20027;-73
2023/12/21 08:14:58;;;;;;;20.13;12.57;;;;;;;0.64;85.55;94270.91;5093605;28;20042;-73
2023/12/21 08:17:24;;;;;;;18.70;12.07;;;;;;;0.60;85.31;94261.72;5110594;28;20413;-73
2023/12/21 08:19:49;;;;;;;16.85;11.63;;;;;;;0.84;85.16;94263.91;5112252;28;20043;-73
2023/12/21 08:22:14;;;;;;;17.25;10.68;;;;;;;1.07;84.51;94280.56;5093363;28;20019;-73
2023/12/21 08:24:40;;;;;;;19.23;11.85;;;;;;;0.94;84.44;94274.44;5112167;28;20028;-73
2023/12/21 08:27:06;;;;;;;15.52;10.27;;;;;;;1.08;84.14;94266.84;5110401;28;20062;-73
2023/12/21 08:29:31;;;;;;;19.30;11.60;;;;;;;1.07;84.22;94272.88;5076734;28;20023;-73
2023/12/21 08:31:57;;;;;;;16.95;10.80;;;;;;;1.11;84.20;94277.75;5093334;28;20119;-73
2023/12/21 08:34:22;;;;;;;18.00;11.50;;;;;;;1.40;83.84;94272.78;5093485;28;20028;-73
2023/12/21 08:36:48;;;;;;;18.67;12.60;;;;;;;1.10;83.79;94270.97;5093362;28;20043;-73
2023/12/21 08:39:14;;;;;;;18.23;13.32;;;;;;;1.38;83.72;94268.63;5111793;28;20030;-73
2023/12/21 08:41:39;;;;;;;14.82;10.13;;;;;;;1.29;82.03;94280.22;5093196;28;20020;-73
2023/12/21 08:44:05;;;;;;;12.02;8.35;;;;;;;1.44;78.78;94260.63;5093306;28;20393;-73
2023/12/21 08:46:30;;;;;;;11.57;7.35;;;;;;;1.62;78.12;94239.09;5110136;28;20028;-73
2023/12/21 08:48:55;;;;;;;10.25;7.38;;;;;;;1.99;78.73;94260.03;5110175;28;20035;-73
2023/12/21 08:51:22;;;;;;;14.02;9.48;;;;;;;1.74;78.88;94255.50;5110118;28;20031;-73
2023/12/21 08:53:47;;;;;;;14.20;8.65;;;;;;;1.87;76.30;94263.31;5111586;28;20034;-72
2023/12/21 08:56:15;;;;;;;12.38;7.80;;;;;;;2.12;76.45;94257.59;5093039;28;20028;-73
2023/12/21 08:58:40;;;;;;;14.25;9.07;;;;;;;2.41;76.41;94253.28;5093254;28;20020;-73
2023/12/21 09:01:06;;;;;;;14.88;9.70;;;;;;;2.61;75.26;94254.66;5092904;28;20039;-73
2023/12/21 09:03:31;;;;;;;14.52;9.30;;;;;;;2.77;76.10;94246.84;5076133;28;20031;-73
2023/12/21 09:05:57;;;;;;;22.10;12.30;;;;;;;2.61;74.68;94252.91;5092943;28;20023;-73
2023/12/21 09:08:22;;;;;;;12.75;7.35;;;;;;;2.49;72.94;94233.16;5109841;28;20035;-72
2023/12/21 09:10:48;;;;;;;10.18;7.03;;;;;;;2.47;72.19;94240.91;5076408;28;20036;-72
2023/12/21 09:13:13;;;;;;;17.88;10.05;;;;;;;2.77;71.81;94227.16;5092899;28;20028;-72
2023/12/21 09:15:39;;;;;;;10.20;6.47;;;;;;;2.71;70.91;94230.09;5076069;28;20028;-73
2023/12/21 09:18:08;;;;;;;11.52;7.57;;;;;;;2.85;70.75;94204.41;5111039;28;20035;-73
2023/12/21 09:20:33;;;;;;;8.25;6.05;;;;;;;2.92;69.24;94212.53;5109896;28;20497;-72
2023/12/21 09:22:59;;;;;;;14.07;7.00;;;;;;;3.20;70.57;94221.06;5092577;28;20076;-72
2023/12/21 09:25:24;;;;;;;14.43;9.15;;;;;;;2.96;70.50;94200.38;5109822;28;20032;-72
2023/12/21 09:27:49;;;;;;;10.63;7.43;;;;;;;3.29;69.70;94207.69;5092753;28;20027;-72
2023/12/21 09:30:17;;;;;;;28.35;13.02;;;;;;;3.42;69.35;94207.69;5109749;28;20031;-72
2023/12/21 09:32:45;;;;;;;12.73;8.10;;;;;;;3.52;68.18;94209.56;5092912;28;20040;-72
2023/12/21 09:35:10;;;;;;;13.88;7.97;;;;;;;3.53;68.04;94198.38;5109746;28;20038;-72
2023/12/21 09:37:36;;;;;;;12.23;7.60;;;;;;;3.70;67.95;94204.16;5092670;28;20031;-72
2023/12/21 09:40:02;;;;;;;20.45;13.63;;;;;;;3.77;68.58;94203.66;5092919;28;20032;-72
2023/12/21 09:42:28;;;;;;;20.23;11.15;;;;;;;3.81;68.64;94191.44;5092627;28;20035;-72
2023/12/21 09:44:53;;;;;;;24.45;14.18;;;;;;;3.87;68.69;94178.16;5092911;28;20032;-72
2023/12/21 09:47:19;;;;;;;15.52;9.35;;;;;;;3.73;67.78;94188.53;5075727;28;20032;-72
2023/12/21 09:49:48;;;;;;;11.85;7.35;;;;;;;3.97;66.89;94175.81;5109801;28;20111;-72
2023/12/21 09:52:13;;;;;;;11.80;7.20;;;;;;;3.94;67.38;94183.75;5109538;28;20031;-72
2023/12/21 09:54:42;;;;;;;9.90;7.63;;;;;;;4.14;67.08;94169.53;5092743;28;20417;-73
2023/12/21 09:57:07;;;;;;;13.95;8.98;;;;;;;4.40;66.89;94168.59;5092358;28;20059;-72
2023/12/21 09:59:33;;;;;;;9.63;6.40;;;;;;;4.03;66.10;94181.34;5092798;28;20028;-72
2023/12/21 10:01:58;;;;;;;14.35;9.40;;;;;;;4.12;65.87;94158.53;5109292;28;20020;-72
2023/12/21 10:04:24;;;;;;;10.75;6.60;;;;;;;3.98;65.01;94151.75;5092675;28;20027;-72
2023/12/21 10:06:49;;;;;;;13.65;7.13;;;;;;;4.23;65.18;94148.34;5092425;28;20038;-74
2023/12/21 10:09:15;;;;;;;10.77;6.47;;;;;;;4.28;66.98;94156.56;5092446;28;20481;-72
2023/12/21 10:11:41;;;;;;;11.40;6.90;;;;;;;4.39;65.48;94143.78;5093916;28;20481;-72
2023/12/21 10:14:19;;;;;;;9.82;7.05;;;;;;;4.45;66.20;94137.41;5095799;28;20039;-72
2023/12/21 10:16:45;;;;;;;10.52;7.90;;;;;;;4.79;64.89;94129.88;5113319;28;20030;-72
2023/12/21 10:19:13;;;;;;;13.20;7.65;;;;;;;4.34;66.65;94109.84;5095944;28;20027;-72
2023/12/21 10:21:40;;;;;;;14.20;8.43;;;;;;;4.58;66.18;94121.94;5095857;28;20515;-72
2023/12/21 10:24:06;;;;;;;11.98;7.93;;;;;;;4.50;66.40;94121.66;5096085;28;20484;-72
2023/12/21 10:26:31;;;;;;;12.93;8.05;;;;;;;4.47;65.57;94097.78;5095853;28;20028;-72
2023/12/21 10:28:56;;;;;;;16.88;10.95;;;;;;;4.60;65.09;94102.06;5112757;28;20378;-72
2023/12/21 10:31:22;;;;;;;10.02;7.05;;;;;;;4.80;67.28;94104.06;5095592;28;20077;-72
2023/12/21 10:33:47;;;;;;;17.90;10.70;;;;;;;4.66;65.88;94094.75;5114006;28;20469;-72
2023/12/21 10:36:13;;;;;;;10.30;6.80;;;;;;;4.75;63.30;94082.16;5095504;28;20035;-73
2023/12/21 10:38:40;;;;;;;11.18;7.95;;;;;;;5.00;64.98;94082.03;5095541;28;20035;-73
2023/12/21 10:41:06;;;;;;;10.98;6.90;;;;;;;4.72;64.03;94074.66;5078646;28;20527;-72
2023/12/21 10:43:34;;;;;;;11.32;7.22;;;;;;;4.94;63.89;94077.31;5095408;28;20035;-72
2023/12/21 10:45:59;;;;;;;14.13;8.90;;;;;;;4.83;65.29;94042.06;5112258;28;20599;-73
2023/12/21 10:48:25;;;;;;;9.48;6.32;;;;;;;4.84;63.91;94063.47;5112195;28;20084;-72
2023/12/21 10:50:51;;;;;;;12.90;7.82;;;;;;;5.11;63.66;94065.78;5112320;28;20081;-72
2023/12/21 10:53:18;;;;;;;14.43;9.88;;;;;;;5.23;65.99;94061.50;5112148;28;20032;-72
2023/12/21 10:55:43;;;;;;;13.80;8.95;;;;;;;5.07;64.31;94056.63;5112232;28;20024;-72
2023/12/21 10:58:09;;;;;;;19.90;9.85;;;;;;;5.17;64.08;94056.78;5112183;28;20051;-72
2023/12/21 11:00:34;;;;;;;13.68;8.80;;;;;;;5.42;65.86;94054.03;5095198;28;20085;-72
2023/12/21 11:03:00;;;;;;;14.98;8.98;;;;;;;5.33;65.59;94034.94;5112036;28;20469;-72
2023/12/21 11:05:26;;;;;;;9.98;6.35;;;;;;;4.95;62.81;94016.34;5078117;28;20023;-72
2023/12/21 11:07:53;;;;;;;17.48;9.80;;;;;;;5.04;63.95;94025.97;5078276;28;20031;-72
2023/12/21 11:10:21;;;;;;;9.15;6.65;;;;;;;5.33;65.95;94016.91;5095224;28;20127;-72
2023/12/21 11:12:47;;;;;;;15.20;8.68;;;;;;;5.00;64.69;94011.69;5095090;28;20031;-72
2023/12/21 11:15:14;;;;;;;17.83;8.35;;;;;;;5.22;65.30;94014.31;5094940;28;20042;-73